createdAt,value
2019-01-14T00:00:29.069Z,97387.42
2019-01-14T00:02:56.394Z,97392.38
2019-01-14T00:05:23.651Z,97422.72
2019-01-14T00:07:50.889Z,97434.43
2019-01-14T00:10:18.037Z,97434.52
2019-01-14T00:12:44.956Z,97407.88
2019-01-14T00:15:12.239Z,97414.03
2019-01-14T00:17:39.114Z,97419.02
2019-01-14T00:20:06.065Z,97427.26
2019-01-14T00:22:33.388Z,97420.28
2019-01-14T00:25:00.271Z,97419.95
2019-01-14T00:27:27.249Z,97416.84
2019-01-14T00:29:54.532Z,97408.15
2019-01-14T00:32:21.677Z,97424.62
2019-01-14T00:34:48.545Z,97407.60
2019-01-14T00:37:16.401Z,97426.77
2019-01-14T00:39:43.363Z,97419.13
2019-01-14T00:42:10.248Z,97413.15
2019-01-14T00:44:37.233Z,97425.45
2019-01-14T00:47:04.142Z,97415.64
2019-01-14T00:49:32.954Z,97439.62
2019-01-14T00:52:00.121Z,97424.36
2019-01-14T00:54:27.372Z,97429.23
2019-01-14T00:56:54.523Z,97445.45
2019-01-14T00:59:21.468Z,97461.87
2019-01-14T01:01:48.416Z,97471.80
2019-01-14T01:04:15.280Z,97476.87
2019-01-14T01:06:43.320Z,97471.82
2019-01-14T01:09:10.276Z,97465.66
2019-01-14T01:11:37.183Z,97474.84
2019-01-14T01:14:04.066Z,97485.63
2019-01-14T01:16:30.940Z,97473.52
2019-01-14T01:18:58.169Z,97493.52
2019-01-14T01:21:25.136Z,97504.42
2019-01-14T01:23:52.366Z,97501.67
2019-01-14T01:26:19.299Z,97526.06
2019-01-14T01:28:46.438Z,97533.91
2019-01-14T01:31:13.590Z,97533.83
2019-01-14T01:33:40.462Z,97544.40
2019-01-14T01:36:07.336Z,97552.45
2019-01-14T01:38:34.356Z,97552.52
2019-01-14T01:41:02.282Z,97557.59
2019-01-14T01:43:29.357Z,97560.02
2019-01-14T01:45:56.318Z,97559.91
2019-01-14T01:48:23.179Z,97564.39
2019-01-14T01:50:50.056Z,97571.22
2019-01-14T01:53:16.945Z,97580.05
2019-01-14T01:55:43.889Z,97578.73
2019-01-14T01:58:10.754Z,97576.63
2019-01-14T02:00:38.198Z,97592.55
2019-01-14T02:03:05.421Z,97597.03
2019-01-14T02:05:32.589Z,97608.16
2019-01-14T02:07:59.544Z,97602.50
2019-01-14T02:10:26.441Z,97603.42
2019-01-14T02:12:53.721Z,97616.19
2019-01-14T02:15:20.610Z,97625.25
2019-01-14T02:17:48.950Z,97642.39
2019-01-14T02:20:15.830Z,97656.08
2019-01-14T02:22:47.311Z,97659.45
2019-01-14T02:25:14.501Z,97666.20
2019-01-14T02:27:41.368Z,97656.95
2019-01-14T02:30:08.710Z,97672.02
2019-01-14T02:32:35.958Z,97684.30
2019-01-14T02:35:02.894Z,97703.59
2019-01-14T02:37:30.024Z,97704.85
2019-01-14T02:39:57.993Z,97708.17
2019-01-14T02:42:24.861Z,97726.52
2019-01-14T02:44:52.032Z,97717.07
2019-01-14T02:47:19.014Z,97725.57
2019-01-14T02:49:47.819Z,97716.33
2019-01-14T02:52:15.707Z,97724.66
2019-01-14T02:54:42.589Z,97741.01
2019-01-14T02:57:09.540Z,97745.44
2019-01-14T02:59:36.755Z,97740.27
2019-01-14T03:02:03.637Z,97745.20
2019-01-14T03:04:30.947Z,97761.22
2019-01-14T03:06:58.169Z,97765.67
2019-01-14T03:09:25.378Z,97766.66
2019-01-14T03:11:52.326Z,97768.22
2019-01-14T03:14:19.599Z,97775.05
2019-01-14T03:16:46.470Z,97774.31
2019-01-14T03:19:13.748Z,97778.55
2019-01-14T03:21:40.657Z,97771.99
2019-01-14T03:24:07.543Z,97784.55
2019-01-14T03:26:34.805Z,97806.44
2019-01-14T03:29:02.044Z,97807.69
2019-01-14T03:31:28.910Z,97803.20
2019-01-14T03:33:55.804Z,97812.22
2019-01-14T03:36:22.757Z,97822.45
2019-01-14T03:38:49.712Z,97825.58
2019-01-14T03:41:16.603Z,97815.76
2019-01-14T03:43:43.828Z,97837.52
2019-01-14T03:46:10.765Z,97835.27
2019-01-14T03:48:37.653Z,97848.62
2019-01-14T03:51:04.613Z,97830.42
2019-01-14T03:53:31.910Z,97848.66
2019-01-14T03:55:58.865Z,97850.33
2019-01-14T03:58:25.795Z,97868.91
2019-01-14T04:00:52.727Z,97865.69
2019-01-14T04:03:19.661Z,97861.77
2019-01-14T04:05:47.875Z,97876.47
2019-01-14T04:08:15.114Z,97891.21
2019-01-14T04:10:41.975Z,97882.24
2019-01-14T04:13:08.858Z,97898.54
2019-01-14T04:15:35.808Z,97908.34
2019-01-14T04:18:03.021Z,97923.44
2019-01-14T04:20:29.974Z,97909.75
2019-01-14T04:22:56.954Z,97933.56
2019-01-14T04:25:23.817Z,97936.05
2019-01-14T04:27:51.105Z,97946.69
2019-01-14T04:30:18.067Z,97957.95
2019-01-14T04:32:45.286Z,97957.07
2019-01-14T04:35:12.165Z,97963.80
2019-01-14T04:37:39.120Z,97970.48
2019-01-14T04:40:05.985Z,97973.28
2019-01-14T04:42:33.856Z,97984.97
2019-01-14T04:45:00.826Z,97981.50
2019-01-14T04:47:27.823Z,97989.28
2019-01-14T04:49:55.252Z,97995.09
2019-01-14T04:52:22.620Z,98013.90
2019-01-14T04:54:49.591Z,98013.95
2019-01-14T04:57:16.653Z,98023.06
2019-01-14T04:59:43.991Z,98029.78
2019-01-14T05:02:11.207Z,98023.14
2019-01-14T05:04:38.145Z,98031.09
2019-01-14T05:07:05.408Z,98026.77
2019-01-14T05:09:32.619Z,98045.39
2019-01-14T05:11:59.549Z,98044.20
2019-01-14T05:14:26.436Z,98042.87
2019-01-14T05:16:53.398Z,98060.97
2019-01-14T05:19:20.747Z,98042.00
2019-01-14T05:21:48.677Z,98062.86
2019-01-14T05:24:15.896Z,98059.30
2019-01-14T05:26:42.786Z,98071.99
2019-01-14T05:29:09.717Z,98079.94
2019-01-14T05:31:36.975Z,98091.47
2019-01-14T05:34:03.951Z,98097.22
2019-01-14T05:36:30.984Z,98100.88
2019-01-14T05:38:57.936Z,98096.89
2019-01-14T05:41:25.390Z,98106.00
2019-01-14T05:43:52.315Z,98103.20
2019-01-14T05:46:19.197Z,98125.61
2019-01-14T05:48:46.453Z,98127.50
2019-01-14T05:51:13.313Z,98132.78
2019-01-14T05:53:40.191Z,98136.83
2019-01-14T05:56:07.110Z,98139.02
2019-01-14T05:58:34.008Z,98143.63
2019-01-14T06:01:00.908Z,98155.27
2019-01-14T06:03:28.135Z,98168.00
2019-01-14T06:05:55.479Z,98174.63
2019-01-14T06:08:22.345Z,98188.20
2019-01-14T06:10:49.585Z,98190.08
2019-01-14T06:13:16.539Z,98196.90
2019-01-14T06:15:43.465Z,98211.88
2019-01-14T06:18:10.428Z,98223.62
2019-01-14T06:20:37.658Z,98231.44
2019-01-14T06:23:04.812Z,98226.34
2019-01-14T06:25:31.711Z,98219.17
2019-01-14T06:27:58.666Z,98211.84
2019-01-14T06:30:25.962Z,98225.11
2019-01-14T06:32:52.898Z,98218.05
2019-01-14T06:35:20.062Z,98222.95
2019-01-14T06:37:52.258Z,98216.87
2019-01-14T06:40:16.404Z,98216.18
2019-01-14T06:42:43.559Z,98212.55
2019-01-14T06:45:10.815Z,98222.81
2019-01-14T06:47:38.073Z,98235.33
2019-01-14T06:50:05.045Z,98239.75
2019-01-14T06:52:31.909Z,98236.36
2019-01-14T06:54:58.774Z,98241.88
2019-01-14T06:57:25.650Z,98244.12
2019-01-14T06:59:52.911Z,98247.81
2019-01-14T07:02:19.861Z,98246.93
2019-01-14T07:04:46.799Z,98245.91
2019-01-14T07:07:14.046Z,98250.47
2019-01-14T07:09:41.008Z,98247.16
2019-01-14T07:12:08.240Z,98242.47
2019-01-14T07:14:35.235Z,98260.12
2019-01-14T07:17:02.199Z,98266.73
2019-01-14T07:19:29.156Z,98258.31
2019-01-14T07:21:56.031Z,98264.93
2019-01-14T07:24:23.377Z,98263.95
2019-01-14T07:26:50.275Z,98263.98
2019-01-14T07:29:17.218Z,98263.66
2019-01-14T07:31:44.165Z,98270.28
2019-01-14T07:34:11.094Z,98268.05
2019-01-14T07:36:37.998Z,98267.78
2019-01-14T07:39:05.958Z,98284.18
2019-01-14T07:41:32.908Z,98273.72
2019-01-14T07:44:00.159Z,98279.58
2019-01-14T07:46:27.037Z,98276.11
2019-01-14T07:48:54.285Z,98290.70
2019-01-14T07:51:21.230Z,98272.00
2019-01-14T07:53:48.473Z,98287.72
2019-01-14T07:56:15.500Z,98274.17
2019-01-14T07:58:42.443Z,98281.40
2019-01-14T08:01:09.356Z,98283.80
2019-01-14T08:03:36.277Z,98285.59
2019-01-14T08:06:03.215Z,98287.81
2019-01-14T08:08:30.430Z,98297.52
2019-01-14T08:10:57.308Z,98307.66
2019-01-14T08:13:24.241Z,98302.98
2019-01-14T08:15:51.383Z,98323.39
2019-01-14T08:18:18.275Z,98340.24
2019-01-14T08:20:45.590Z,98351.91
2019-01-14T08:23:12.831Z,98337.13
2019-01-14T08:25:39.732Z,98351.61
2019-01-14T08:28:06.934Z,98377.17
2019-01-14T08:30:33.810Z,98373.73
2019-01-14T08:33:01.132Z,98379.41
2019-01-14T08:35:28.046Z,98390.70
2019-01-14T08:37:55.318Z,98384.22
2019-01-14T08:40:22.227Z,98404.77
2019-01-14T08:42:49.566Z,98399.14
2019-01-14T08:45:16.536Z,98422.22
2019-01-14T08:47:43.655Z,98408.95
2019-01-14T08:50:10.862Z,98423.20
2019-01-14T08:52:37.791Z,98424.88
2019-01-14T08:55:05.062Z,98426.02
2019-01-14T08:57:31.921Z,98440.97
2019-01-14T08:59:58.816Z,98444.94
2019-01-14T09:02:26.101Z,98460.66
2019-01-14T09:04:53.256Z,98451.37
2019-01-14T09:07:20.416Z,98455.52
2019-01-14T09:09:47.304Z,98454.41
2019-01-14T09:12:14.192Z,98453.14
2019-01-14T09:14:41.463Z,98456.30
2019-01-14T09:17:08.412Z,98457.95
2019-01-14T09:19:35.547Z,98463.41
2019-01-14T09:22:02.815Z,98456.55
2019-01-14T09:24:30.171Z,98447.03
2019-01-14T09:26:57.407Z,98457.98
2019-01-14T09:29:24.287Z,98467.84
2019-01-14T09:31:51.603Z,98459.48
2019-01-14T09:34:18.484Z,98463.64
2019-01-14T09:36:46.537Z,98468.36
2019-01-14T09:39:13.787Z,98461.36
2019-01-14T09:41:40.758Z,98471.16
2019-01-14T09:44:08.526Z,98468.54
2019-01-14T09:46:35.464Z,98473.64
2019-01-14T09:49:02.706Z,98465.67
2019-01-14T09:51:29.665Z,98470.84
2019-01-14T09:53:56.627Z,98471.02
2019-01-14T09:56:23.936Z,98469.45
2019-01-14T09:58:51.087Z,98474.17
2019-01-14T10:01:17.967Z,98473.78
2019-01-14T10:03:44.849Z,98487.24
2019-01-14T10:06:12.085Z,98486.86
2019-01-14T10:08:43.041Z,98481.93
2019-01-14T10:11:08.280Z,98468.29
2019-01-14T10:13:35.634Z,98502.28
2019-01-14T10:16:02.888Z,98484.88
2019-01-14T10:18:29.927Z,98484.73
2019-01-14T10:20:57.182Z,98479.26
2019-01-14T10:23:24.060Z,98476.56
2019-01-14T10:25:51.026Z,98469.55
2019-01-14T10:28:18.013Z,98464.72
2019-01-14T10:30:44.965Z,98450.47
2019-01-14T10:33:11.925Z,98467.69
2019-01-14T10:35:38.877Z,98464.33
2019-01-14T10:38:05.751Z,98465.92
2019-01-14T10:40:33.072Z,98458.92
2019-01-14T10:43:00.020Z,98443.11
2019-01-14T10:45:27.256Z,98465.91
2019-01-14T10:47:54.266Z,98468.32
2019-01-14T10:50:21.264Z,98465.80
2019-01-14T10:52:49.694Z,98473.86
2019-01-14T10:55:17.198Z,98467.42
2019-01-14T10:57:44.163Z,98453.91
2019-01-14T11:00:11.382Z,98457.95
2019-01-14T11:02:38.286Z,98462.23
2019-01-14T11:05:05.490Z,98447.68
2019-01-14T11:07:32.736Z,98449.70
2019-01-14T11:10:00.002Z,98444.03
2019-01-14T11:12:26.960Z,98445.63
2019-01-14T11:14:55.102Z,98456.68
2019-01-14T11:17:22.015Z,98455.14
2019-01-14T11:19:48.887Z,98435.28
2019-01-14T11:22:15.776Z,98461.77
2019-01-14T11:24:42.991Z,98453.55
2019-01-14T11:27:09.859Z,98458.22
2019-01-14T11:29:36.721Z,98455.13
2019-01-14T11:32:03.952Z,98464.49
2019-01-14T11:34:30.905Z,98459.66
2019-01-14T11:36:57.778Z,98457.11
2019-01-14T11:39:24.664Z,98462.45
2019-01-14T11:41:51.823Z,98462.90
2019-01-14T11:44:18.977Z,98473.02
2019-01-14T11:46:45.924Z,98467.42
2019-01-14T11:49:12.877Z,98466.55
2019-01-14T11:51:39.864Z,98465.19
2019-01-14T11:54:07.046Z,98475.88
2019-01-14T11:56:33.936Z,98467.59
2019-01-14T11:59:00.989Z,98464.89
2019-01-14T12:01:28.233Z,98474.63
2019-01-14T12:03:55.324Z,98460.68
2019-01-14T12:06:22.278Z,98477.08
2019-01-14T12:08:49.242Z,98449.25
2019-01-14T12:11:16.445Z,98447.77
2019-01-14T12:13:43.381Z,98463.33
2019-01-14T12:16:10.249Z,98482.52
2019-01-14T12:18:37.451Z,98463.50
2019-01-14T12:21:04.421Z,98473.22
2019-01-14T12:23:31.404Z,98471.86
2019-01-14T12:25:59.735Z,98473.80
2019-01-14T12:28:26.662Z,98492.15
2019-01-14T12:30:53.531Z,98493.20
2019-01-14T12:33:20.874Z,98500.66
2019-01-14T12:35:47.820Z,98512.93
2019-01-14T12:38:15.070Z,98531.75
2019-01-14T12:40:41.992Z,98560.17
2019-01-14T12:43:08.886Z,98571.09
2019-01-14T12:45:35.774Z,98565.53
2019-01-14T12:48:02.748Z,98550.56
2019-01-14T12:50:29.714Z,98542.30
2019-01-14T12:52:56.930Z,98544.67
2019-01-14T12:55:23.807Z,98527.86
2019-01-14T12:57:50.697Z,98530.33
2019-01-14T13:00:17.684Z,98530.56
2019-01-14T13:02:44.910Z,98531.27
2019-01-14T13:05:11.822Z,98534.11
2019-01-14T13:07:39.117Z,98545.58
2019-01-14T13:10:05.981Z,98543.64
2019-01-14T13:12:32.865Z,98541.80
2019-01-14T13:15:00.248Z,98558.77
2019-01-14T13:17:27.173Z,98559.10
2019-01-14T13:19:54.348Z,98560.50
2019-01-14T13:22:21.231Z,98567.47
2019-01-14T13:24:48.452Z,98586.86
2019-01-14T13:27:15.357Z,98577.81
2019-01-14T13:29:42.660Z,98584.41
2019-01-14T13:32:09.894Z,98585.66
2019-01-14T13:34:36.773Z,98592.89
2019-01-14T13:37:03.655Z,98623.78
2019-01-14T13:39:34.181Z,98618.19
2019-01-14T13:41:59.278Z,98596.69
2019-01-14T13:44:26.471Z,98607.30
2019-01-14T13:46:53.718Z,98602.58
2019-01-14T13:49:20.866Z,98593.91
2019-01-14T13:51:47.800Z,98601.56
2019-01-14T13:54:14.796Z,98609.98
2019-01-14T13:56:41.734Z,98613.61
2019-01-14T13:59:08.966Z,98629.96
2019-01-14T14:01:35.845Z,98630.59
2019-01-14T14:04:03.173Z,98619.11
2019-01-14T14:06:30.057Z,98634.57
2019-01-14T14:08:57.021Z,98654.61
2019-01-14T14:11:24.308Z,98651.39
2019-01-14T14:13:51.462Z,98668.47
2019-01-14T14:16:18.622Z,98675.67
2019-01-14T14:18:45.582Z,98692.09
2019-01-14T14:21:12.515Z,98697.12
2019-01-14T14:23:39.451Z,98708.30
2019-01-14T14:26:06.346Z,98686.61
2019-01-14T14:28:34.338Z,98723.84
2019-01-14T14:31:01.620Z,98723.46
2019-01-14T14:33:28.777Z,98712.17
2019-01-14T14:35:56.013Z,98684.14
2019-01-14T14:38:22.902Z,98684.53
2019-01-14T14:40:50.228Z,98674.05
2019-01-14T14:43:17.213Z,98681.47
2019-01-14T14:45:44.094Z,98691.47
2019-01-14T14:48:11.033Z,98704.00
2019-01-14T14:50:38.970Z,98704.06
2019-01-14T14:53:05.864Z,98709.48
2019-01-14T14:55:32.832Z,98709.78
2019-01-14T14:57:59.789Z,98698.83
2019-01-14T15:00:26.722Z,98688.87
2019-01-14T15:02:53.668Z,98698.18
2019-01-14T15:05:20.852Z,98693.92
2019-01-14T15:07:47.832Z,98693.97
2019-01-14T15:10:14.775Z,98695.17
2019-01-14T15:12:41.713Z,98703.59
2019-01-14T15:15:08.898Z,98704.84
2019-01-14T15:17:35.820Z,98713.13
2019-01-14T15:20:02.746Z,98723.59
2019-01-14T15:22:29.648Z,98718.58
2019-01-14T15:24:56.518Z,98715.23
2019-01-14T15:27:23.728Z,98728.20
2019-01-14T15:29:51.766Z,98728.27
2019-01-14T15:32:19.060Z,98741.34
2019-01-14T15:34:46.161Z,98748.39
2019-01-14T15:37:13.085Z,98742.87
2019-01-14T15:39:40.089Z,98762.25
2019-01-14T15:42:07.394Z,98765.20
2019-01-14T15:44:34.809Z,98776.47
2019-01-14T15:47:01.776Z,98776.53
2019-01-14T15:49:28.752Z,98786.58
2019-01-14T15:51:57.739Z,98795.82
2019-01-14T15:54:24.684Z,98807.13
2019-01-14T15:56:52.197Z,98815.50
2019-01-14T15:59:19.186Z,98837.69
2019-01-14T16:01:46.068Z,98841.06
2019-01-14T16:04:12.998Z,98846.49
2019-01-14T16:06:39.969Z,98854.84
2019-01-14T16:09:07.144Z,98862.78
2019-01-14T16:11:34.138Z,98868.55
2019-01-14T16:14:01.315Z,98868.66
2019-01-14T16:16:28.184Z,98872.42
2019-01-14T16:18:55.162Z,98888.28
2019-01-14T16:21:22.111Z,98891.66
2019-01-14T16:23:49.096Z,98889.55
2019-01-14T16:26:16.059Z,98902.95
2019-01-14T16:28:42.991Z,98907.12
2019-01-14T16:31:09.873Z,98908.42
2019-01-14T16:33:37.097Z,98924.30
2019-01-14T16:36:04.353Z,98920.92
2019-01-14T16:38:31.491Z,98925.09
2019-01-14T16:40:58.354Z,98925.55
2019-01-14T16:43:25.233Z,98929.77
2019-01-14T16:45:52.171Z,98949.33
2019-01-14T16:48:19.406Z,98934.31
2019-01-14T16:50:46.410Z,98942.23
2019-01-14T16:53:13.273Z,98957.70
2019-01-14T16:55:40.425Z,98960.97
2019-01-14T16:58:07.314Z,98961.92
2019-01-14T17:00:34.304Z,98977.29
2019-01-14T17:03:01.444Z,98984.47
2019-01-14T17:05:28.325Z,98985.31
2019-01-14T17:07:55.986Z,98996.24
2019-01-14T17:10:25.231Z,99004.07
2019-01-14T17:12:51.472Z,99007.41
2019-01-14T17:15:18.747Z,99009.53
2019-01-14T17:17:45.831Z,99023.84
2019-01-14T17:20:12.788Z,99023.41
2019-01-14T17:22:39.734Z,99024.41
2019-01-14T17:25:06.615Z,99031.52
2019-01-14T17:27:33.777Z,99037.98
2019-01-14T17:30:00.658Z,99043.80
2019-01-14T17:32:27.617Z,99041.48
2019-01-14T17:34:54.608Z,99052.36
2019-01-14T17:37:21.462Z,99055.99
2019-01-14T17:39:48.715Z,99063.56
2019-01-14T17:42:15.574Z,99066.34
2019-01-14T17:44:43.597Z,99065.56
2019-01-14T17:47:11.005Z,99076.03
2019-01-14T17:49:37.968Z,99068.45
2019-01-14T17:52:04.829Z,99074.86
2019-01-14T17:54:31.697Z,99082.64
2019-01-14T17:56:58.617Z,99085.46
2019-01-14T17:59:25.937Z,99092.34
2019-01-14T18:01:53.284Z,99088.08
2019-01-14T18:04:20.437Z,99083.94
2019-01-14T18:06:47.672Z,99091.61
2019-01-14T18:09:14.545Z,99093.84
2019-01-14T18:11:41.431Z,99101.38
2019-01-14T18:14:08.416Z,99101.23
2019-01-14T18:16:35.682Z,99104.44
2019-01-14T18:19:02.618Z,99115.38
2019-01-14T18:21:29.618Z,99120.80
2019-01-14T18:23:56.503Z,99117.02
2019-01-14T18:26:23.452Z,99122.23
2019-01-14T18:28:50.921Z,99123.98
2019-01-14T18:31:17.862Z,99134.36
2019-01-14T18:33:45.109Z,99138.70
2019-01-14T18:36:12.004Z,99139.04
2019-01-14T18:38:38.955Z,99142.30
2019-01-14T18:41:07.156Z,99142.66
2019-01-14T18:43:34.121Z,99150.72
2019-01-14T18:46:02.706Z,99151.10
2019-01-14T18:48:29.582Z,99158.23
2019-01-14T18:50:56.455Z,99162.96
2019-01-14T18:53:23.477Z,99167.30
2019-01-14T18:55:50.442Z,99167.73
2019-01-14T18:58:17.322Z,99184.25
2019-01-14T19:00:44.232Z,99180.44
2019-01-14T19:03:11.425Z,99194.37
2019-01-14T19:05:38.675Z,99187.95
2019-01-14T19:08:05.563Z,99193.41
2019-01-14T19:10:32.978Z,99195.53
2019-01-14T19:13:00.130Z,99200.02
2019-01-14T19:15:27.410Z,99196.02
2019-01-14T19:17:54.761Z,99206.98
2019-01-14T19:20:22.105Z,99212.52
2019-01-14T19:22:49.079Z,99211.78
2019-01-14T19:25:16.006Z,99218.25
2019-01-14T19:27:42.908Z,99223.37
2019-01-14T19:30:09.799Z,99225.20
2019-01-14T19:32:38.643Z,99228.69
2019-01-14T19:35:05.615Z,99229.95
2019-01-14T19:37:32.868Z,99238.27
2019-01-14T19:40:00.166Z,99240.16
2019-01-14T19:42:27.086Z,99247.59
2019-01-14T19:44:54.017Z,99248.55
2019-01-14T19:47:21.009Z,99257.94
2019-01-14T19:49:48.411Z,99259.27
2019-01-14T19:52:15.285Z,99260.37
2019-01-14T19:54:42.630Z,99258.60
2019-01-14T19:57:09.885Z,99269.30
2019-01-14T19:59:36.794Z,99271.22
2019-01-14T20:02:04.589Z,99277.92
2019-01-14T20:04:31.726Z,99273.94
2019-01-14T20:06:59.658Z,99270.86
2019-01-14T20:09:26.660Z,99277.50
2019-01-14T20:11:53.915Z,99278.20
2019-01-14T20:14:20.861Z,99284.27
2019-01-14T20:16:47.765Z,99289.04
2019-01-14T20:19:14.715Z,99286.75
2019-01-14T20:21:41.889Z,99284.05
2019-01-14T20:24:09.259Z,99288.05
2019-01-14T20:26:38.790Z,99280.09
2019-01-14T20:29:05.991Z,99276.60
2019-01-14T20:31:33.246Z,99297.45
2019-01-14T20:34:00.528Z,99297.18
2019-01-14T20:36:27.885Z,99308.58
2019-01-14T20:38:55.230Z,99292.64
2019-01-14T20:43:56.493Z,99302.68
2019-01-14T20:46:25.871Z,99304.65
2019-01-14T20:48:54.418Z,99317.33
2019-01-14T20:51:21.837Z,99325.98
2019-01-14T20:56:30.042Z,99320.45
2019-01-14T20:58:56.954Z,99333.73
2019-01-14T21:01:24.266Z,99336.83
2019-01-14T21:03:56.615Z,99340.14
2019-01-14T21:06:23.921Z,99335.68
2019-01-14T21:08:51.254Z,99346.06
2019-01-14T21:11:23.836Z,99339.45
2019-01-14T21:13:46.821Z,99350.05
2019-01-14T21:16:14.016Z,99340.69
2019-01-14T21:18:41.479Z,99349.56
2019-01-14T21:21:08.749Z,99340.33
2019-01-14T21:23:36.002Z,99340.61
2019-01-14T21:26:03.232Z,99349.02
2019-01-14T21:28:30.477Z,99348.17
2019-01-14T21:30:57.382Z,99345.84
2019-01-14T21:33:24.752Z,99328.27
2019-01-14T21:35:52.031Z,99342.69
2019-01-14T21:38:18.902Z,99332.95
2019-01-14T21:40:46.130Z,99337.66
2019-01-14T21:43:13.043Z,99338.78
2019-01-14T21:45:39.996Z,99350.84
2019-01-14T21:48:06.965Z,99346.89
2019-01-14T21:50:34.213Z,99338.51
2019-01-14T21:53:01.105Z,99355.57
2019-01-14T21:55:29.450Z,99343.92
2019-01-14T21:57:56.431Z,99347.05
2019-01-14T22:00:23.748Z,99352.13
2019-01-14T22:02:51.006Z,99348.24
2019-01-14T22:05:17.968Z,99349.53
2019-01-14T22:07:44.968Z,99359.27
2019-01-14T22:10:11.896Z,99353.58
2019-01-14T22:12:39.201Z,99352.03
2019-01-14T22:15:06.454Z,99350.43
2019-01-14T22:17:33.387Z,99344.23
2019-01-14T22:20:00.542Z,99342.20
2019-01-14T22:22:27.475Z,99350.26
2019-01-14T22:24:54.381Z,99357.40
2019-01-14T22:27:21.947Z,99349.00
2019-01-14T22:29:49.151Z,99368.08
2019-01-14T22:32:16.101Z,99359.69
2019-01-14T22:34:43.335Z,99360.14
2019-01-14T22:37:10.202Z,99363.19
2019-01-14T22:39:37.178Z,99357.16
2019-01-14T22:42:04.372Z,99360.40
2019-01-14T22:44:31.269Z,99364.19
2019-01-14T22:46:59.115Z,99364.35
2019-01-14T22:49:25.989Z,99372.75
2019-01-14T22:51:53.280Z,99363.88
2019-01-14T22:54:20.164Z,99361.55
2019-01-14T22:56:47.389Z,99366.45
2019-01-14T22:59:14.375Z,99357.76
2019-01-14T23:01:41.708Z,99371.05
2019-01-14T23:04:08.667Z,99364.82
2019-01-14T23:06:35.873Z,99366.80
2019-01-14T23:09:03.052Z,99368.28
2019-01-14T23:11:31.623Z,99373.80
2019-01-14T23:13:58.873Z,99369.68
2019-01-14T23:16:25.806Z,99368.66
2019-01-14T23:18:52.656Z,99373.94
2019-01-14T23:21:19.570Z,99369.31
2019-01-14T23:23:46.504Z,99370.77
2019-01-14T23:26:13.457Z,99364.56
2019-01-14T23:28:40.657Z,99366.83
2019-01-14T23:31:07.585Z,99363.02
2019-01-14T23:33:34.506Z,99362.45
2019-01-14T23:36:01.805Z,99361.97
2019-01-14T23:38:29.055Z,99376.84
2019-01-14T23:40:56.309Z,99372.63
2019-01-14T23:43:23.245Z,99372.60
2019-01-14T23:45:50.490Z,99373.77
2019-01-14T23:48:17.762Z,99374.98
2019-01-14T23:50:44.658Z,99370.50
2019-01-14T23:53:11.943Z,99369.61
2019-01-14T23:55:38.836Z,99357.70
2019-01-14T23:58:06.153Z,99352.95
